Time;durP1;ratioP1;P1;durP2;ratioP2;P2;SDS_P1;SDS_P2;PMS_P1;PMS_P2;Temp;Humidity;BMP_temperature;BMP_pressure;BME280_temperature;BME280_humidity;BME280_pressure;Samples;Min_cycle;Max_cycle;Signal;HPM_P1;HPM_P2
2022/01/12 00:01:15;;;;;;;7.07;5.50;;;5.00;75.80;;;;;;4927631;29;20507;-48
2022/01/12 00:03:44;;;;;;;5.13;4.40;;;4.90;76.30;;;;;;4909986;29;20544;-48
2022/01/12 00:06:12;;;;;;;6.17;4.40;;;4.90;76.80;;;;;;4921919;29;20468;-48
2022/01/12 00:08:39;;;;;;;5.83;4.53;;;5.00;76.50;;;;;;4924914;29;20494;-48
2022/01/12 00:11:06;;;;;;;6.60;4.17;;;5.00;76.30;;;;;;4937415;29;20969;-48
2022/01/12 00:13:34;;;;;;;7.80;5.10;;;5.00;76.30;;;;;;4922354;29;20575;-48
2022/01/12 00:16:03;;;;;;;6.10;5.00;;;5.00;76.30;;;;;;4923279;28;20464;-48
2022/01/12 00:18:30;;;;;;;6.77;5.03;;;4.90;76.60;;;;;;4919797;29;20467;-47
2022/01/12 00:20:57;;;;;;;6.50;4.53;;;4.90;76.60;;;;;;4921139;29;20475;-48
2022/01/12 00:23:24;;;;;;;6.13;4.80;;;5.00;76.30;;;;;;4925264;29;20865;-47
2022/01/12 00:26:13;;;;;;;4.83;3.93;;;5.00;76.10;;;;;;4922585;29;20568;-48
2022/01/12 00:34:12;;;;;;;6.60;4.67;;;4.90;76.70;;;;;;4921466;29;20465;-48
2022/01/12 00:36:39;;;;;;;11.17;4.90;;;4.90;77.10;;;;;;4937790;28;20465;-47
2022/01/12 00:39:07;;;;;;;6.50;4.80;;;4.80;76.60;;;;;;4912683;29;20468;-48
2022/01/12 00:41:36;;;;;;;6.30;4.40;;;4.80;76.70;;;;;;4923127;29;20853;-48
2022/01/12 00:44:09;;;;;;;5.70;4.97;;;4.80;76.90;;;;;;4927326;29;20478;-48
2022/01/12 00:46:39;;;;;;;6.07;4.13;;;4.90;76.90;;;;;;4924368;29;20483;-48
2022/01/12 00:49:06;;;;;;;5.30;4.23;;;4.90;76.80;;;;;;4925145;29;20504;-48
2022/01/12 00:51:34;;;;;;;6.20;5.00;;;4.80;76.80;;;;;;4923682;29;20475;-48
2022/01/12 00:54:02;;;;;;;7.23;5.47;;;4.80;77.00;;;;;;4923132;29;20475;-48
2022/01/12 00:56:29;;;;;;;6.10;4.47;;;4.80;77.10;;;;;;4911423;29;21033;-48
2022/01/12 00:58:56;;;;;;;5.90;4.60;;;4.70;77.00;;;;;;4924694;29;20507;-48
2022/01/12 01:01:23;;;;;;;5.53;4.33;;;4.70;76.70;;;;;;4927957;29;20465;-48
2022/01/12 01:03:51;;;;;;;7.03;5.33;;;4.80;77.10;;;;;;4924048;29;20469;-48
2022/01/12 01:06:19;;;;;;;5.10;4.60;;;4.80;76.50;;;;;;4925320;29;20460;-49
2022/01/12 01:08:50;;;;;;;5.00;4.50;;;4.80;76.20;;;;;;4910940;29;20530;-49
2022/01/12 01:11:18;;;;;;;5.63;4.43;;;4.80;76.10;;;;;;4909765;29;20471;-48
2022/01/12 01:13:57;;;;;;;5.93;5.27;;;4.80;75.90;;;;;;4925877;29;20942;-48
2022/01/12 01:27:26;;;;;;;6.80;5.53;;;4.50;76.20;;;;;;4922837;29;20477;-49
2022/01/12 01:29:54;;;;;;;6.10;4.73;;;4.50;76.00;;;;;;4922858;29;20875;-48
2022/01/12 01:32:22;;;;;;;5.83;4.93;;;4.50;76.00;;;;;;4910658;29;20471;-48
2022/01/12 01:34:51;;;;;;;6.27;4.83;;;4.40;76.10;;;;;;4912651;29;20833;-49
2022/01/12 01:37:18;;;;;;;6.40;4.87;;;4.40;76.30;;;;;;4922843;29;20498;-47
2022/01/12 01:39:46;;;;;;;5.70;5.13;;;4.40;76.00;;;;;;4920253;29;20607;-48
2022/01/12 01:42:19;;;;;;;6.70;5.17;;;4.30;76.30;;;;;;4921375;29;20472;-48
2022/01/12 01:55:31;;;;;;;7.33;5.23;;;3.90;77.50;;;;;;4922102;29;20463;-48
2022/01/12 01:57:58;;;;;;;6.50;5.20;;;3.80;77.60;;;;;;4907700;29;20468;-48
2022/01/12 02:00:27;;;;;;;6.37;5.73;;;3.80;77.90;;;;;;4920499;29;20567;-48
2022/01/12 02:02:57;;;;;;;7.80;5.50;;;3.80;78.50;;;;;;4910561;29;20806;-48
2022/01/12 02:05:25;;;;;;;8.50;5.90;;;3.80;78.50;;;;;;4910874;29;20920;-48
2022/01/12 02:07:51;;;;;;;7.80;4.90;;;3.80;78.30;;;;;;4910899;29;20464;-48
2022/01/12 02:10:19;;;;;;;5.73;4.70;;;3.70;78.10;;;;;;4917716;29;20491;-48
2022/01/12 02:12:46;;;;;;;7.07;6.20;;;3.60;78.40;;;;;;4923804;29;20475;-48
2022/01/12 02:15:25;;;;;;;6.90;5.07;;;3.60;79.00;;;;;;4903429;29;20979;-48
2022/01/12 02:39:50;;;;;;;7.00;6.30;;;3.50;80.60;;;;;;4918915;29;21007;-48
2022/01/12 02:40:09;;;;;;;6.80;5.60;;;3.40;80.60;;;;;;4923692;29;20471;-48
2022/01/12 02:42:39;;;;;;;7.73;6.47;;;3.40;80.80;;;;;;4922978;29;20472;-48
2022/01/12 02:55:50;;;;;;;10.00;7.30;;;3.30;81.70;;;;;;4927304;29;20452;-48
2022/01/12 02:58:17;;;;;;;9.97;7.83;;;3.30;81.50;;;;;;4913244;29;20464;-48
2022/01/12 03:01:27;;;;;;;7.63;6.00;;;3.20;81.50;;;;;;4924653;29;20996;-48
2022/01/12 03:03:35;;;;;;;9.40;7.53;;;3.20;81.90;;;;;;4921344;29;20475;-48
2022/01/12 03:06:05;;;;;;;12.30;7.17;;;3.10;82.10;;;;;;4921040;29;20459;-48
2022/01/12 03:08:38;;;;;;;8.43;6.53;;;3.10;82.20;;;;;;4912932;29;20465;-48
2022/01/12 03:11:10;;;;;;;10.67;7.40;;;3.10;82.20;;;;;;4915069;29;20495;-48
2022/01/12 03:13:37;;;;;;;7.80;6.40;;;3.00;82.60;;;;;;4924186;29;20472;-47
2022/01/12 03:18:39;;;;;;;11.23;7.43;;;3.00;83.10;;;;;;4924855;29;20474;-48
2022/01/12 03:21:06;;;;;;;8.67;5.80;;;3.00;82.90;;;;;;4909195;29;20473;-48
2022/01/12 03:23:33;;;;;;;9.90;7.23;;;3.00;82.80;;;;;;4925636;29;20497;-48
2022/01/12 03:26:01;;;;;;;10.67;6.80;;;3.00;82.80;;;;;;4899149;29;20460;-47
2022/01/12 03:28:27;;;;;;;7.53;6.60;;;3.00;82.50;;;;;;4923914;29;20463;-48
2022/01/12 03:30:58;;;;;;;7.97;6.60;;;2.90;82.70;;;;;;4923637;29;20492;-47
2022/01/12 03:36:40;;;;;;;;;;;;;;;;;;;;;
2022/01/12 03:39:01;;;;;;;7.70;5.70;;;2.80;82.90;;;;;;4923378;29;20467;-48
2022/01/12 03:41:31;;;;;;;6.93;5.70;;;2.80;82.60;;;;;;4925532;29;20482;-48
2022/01/12 03:44:00;;;;;;;9.37;6.23;;;2.80;82.60;;;;;;4919243;29;20816;-48
2022/01/12 03:46:32;;;;;;;6.77;5.80;;;2.80;82.60;;;;;;4923773;29;20625;-48
2022/01/12 03:48:59;;;;;;;7.50;6.07;;;2.70;82.50;;;;;;4925662;29;20467;-48
2022/01/12 03:51:27;;;;;;;8.07;7.00;;;2.70;82.50;;;;;;4925053;29;20841;-50
2022/01/12 03:53:54;;;;;;;7.70;6.97;;;2.70;82.70;;;;;;4911596;29;20965;-49
2022/01/12 03:56:20;;;;;;;7.10;6.10;;;2.70;82.60;;;;;;4924488;29;20460;-50
2022/01/12 03:58:47;;;;;;;9.37;6.30;;;2.60;82.80;;;;;;4924884;29;20476;-49
2022/01/12 04:01:14;;;;;;;7.70;6.53;;;2.60;82.90;;;;;;4925867;29;20577;-48
2022/01/12 04:03:45;;;;;;;10.83;5.80;;;2.50;82.90;;;;;;4921907;29;20464;-48
2022/01/12 04:08:58;;;;;;;7.20;5.53;;;2.50;83.40;;;;;;4927053;29;20464;-50
2022/01/12 04:11:25;;;;;;;7.33;5.87;;;2.50;83.50;;;;;;4924537;29;20518;-50
2022/01/12 04:13:52;;;;;;;8.63;6.10;;;2.40;83.30;;;;;;4922555;29;20476;-49
2022/01/12 04:16:19;;;;;;;7.73;6.20;;;2.40;83.60;;;;;;4906161;29;20460;-49
2022/01/12 04:18:45;;;;;;;8.77;6.30;;;2.40;83.80;;;;;;4921687;29;20470;-49
2022/01/12 04:21:13;;;;;;;8.17;6.57;;;2.40;83.80;;;;;;4922007;29;20478;-48
2022/01/12 04:23:41;;;;;;;9.07;6.67;;;2.40;84.20;;;;;;4912672;29;20829;-48
2022/01/12 04:26:11;;;;;;;8.03;6.17;;;2.40;84.10;;;;;;4921048;29;20461;-50
2022/01/12 04:28:41;;;;;;;9.57;7.40;;;2.40;84.20;;;;;;4923147;29;20473;-50
2022/01/12 04:31:09;;;;;;;7.50;6.20;;;2.40;84.20;;;;;;4923557;29;21008;-48
2022/01/12 04:33:37;;;;;;;9.00;6.70;;;2.40;84.50;;;;;;4921253;29;20477;-49
2022/01/12 04:36:06;;;;;;;7.30;6.30;;;2.40;84.50;;;;;;4910861;29;20465;-49
2022/01/12 04:38:34;;;;;;;9.80;5.70;;;2.40;84.60;;;;;;4919138;29;20556;-49
2022/01/12 04:41:06;;;;;;;7.40;5.97;;;2.40;84.80;;;;;;4926812;29;20473;-49
2022/01/12 04:43:35;;;;;;;14.90;8.57;;;2.40;85.00;;;;;;4939595;28;20475;-48
2022/01/12 04:48:48;;;;;;;11.57;8.80;;;2.40;85.50;;;;;;4923517;29;20571;-48
2022/01/12 04:51:14;;;;;;;11.30;7.20;;;2.50;85.20;;;;;;4938229;28;20500;-49
2022/01/12 04:53:41;;;;;;;12.20;7.97;;;2.50;85.00;;;;;;4927138;29;20474;-49
2022/01/12 04:56:08;;;;;;;11.27;7.77;;;2.40;85.20;;;;;;4923647;29;20946;-50
2022/01/12 04:58:35;;;;;;;11.03;6.57;;;2.40;85.40;;;;;;4924153;29;20546;-49
2022/01/12 05:01:10;;;;;;;11.90;7.30;;;2.50;85.40;;;;;;4913622;29;20474;-49
2022/01/12 05:09:08;;;;;;;16.90;8.87;;;2.50;85.50;;;;;;4917758;29;20469;-48
2022/01/12 05:14:23;;;;;;;9.87;7.97;;;2.50;85.60;;;;;;4918850;29;20451;-51
2022/01/12 05:16:50;;;;;;;12.80;8.70;;;2.60;85.50;;;;;;4920722;29;20464;-51
2022/01/12 05:19:17;;;;;;;11.30;8.43;;;2.50;85.60;;;;;;4905212;29;20468;-51
2022/01/12 05:21:44;;;;;;;12.07;8.10;;;2.50;85.70;;;;;;4925936;29;20455;-51
2022/01/12 05:24:11;;;;;;;9.50;7.30;;;2.60;85.50;;;;;;4918945;29;20593;-51
2022/01/12 05:26:38;;;;;;;12.23;7.63;;;2.60;85.50;;;;;;4910967;29;20464;-51
2022/01/12 05:29:05;;;;;;;8.77;6.50;;;2.60;85.40;;;;;;4911618;29;20849;-51
2022/01/12 05:31:33;;;;;;;10.70;7.50;;;2.60;85.60;;;;;;4923640;29;20496;-51
2022/01/12 05:34:01;;;;;;;13.27;8.20;;;2.60;85.50;;;;;;4924720;29;20483;-51
2022/01/12 05:36:31;;;;;;;11.07;8.50;;;2.50;85.50;;;;;;4924331;29;20470;-51
2022/01/12 05:38:59;;;;;;;12.20;7.60;;;2.50;85.70;;;;;;4921149;29;20460;-51
2022/01/12 05:41:27;;;;;;;12.73;7.97;;;2.60;85.30;;;;;;4922995;29;20464;-52
2022/01/12 05:43:54;;;;;;;12.63;7.63;;;2.60;85.30;;;;;;4919100;29;20459;-51
2022/01/12 05:46:25;;;;;;;9.97;6.70;;;2.50;85.40;;;;;;4922771;29;20913;-51
2022/01/12 05:51:46;;;;;;;9.00;7.20;;;2.50;85.50;;;;;;4922914;29;20582;-52
2022/01/12 05:54:13;;;;;;;11.97;8.10;;;2.50;85.50;;;;;;4919363;29;20464;-51
2022/01/12 05:56:39;;;;;;;11.27;7.50;;;2.50;85.30;;;;;;4924182;29;20487;-51
2022/01/12 05:59:06;;;;;;;11.53;7.37;;;2.50;85.40;;;;;;4921470;29;20471;-52
2022/01/12 06:01:33;;;;;;;11.90;8.33;;;2.50;85.10;;;;;;4929870;29;20463;-51
2022/01/12 06:04:00;;;;;;;9.20;7.63;;;2.50;85.10;;;;;;4921864;29;20467;-51
2022/01/12 06:06:27;;;;;;;10.77;7.50;;;2.50;84.90;;;;;;4920868;29;20555;-52
2022/01/12 06:08:54;;;;;;;9.33;7.73;;;2.50;84.60;;;;;;4919751;29;20470;-51
2022/01/12 06:11:23;;;;;;;12.73;8.90;;;2.50;84.60;;;;;;4921253;29;20884;-52
2022/01/12 06:13:51;;;;;;;10.53;7.93;;;2.50;84.60;;;;;;4924314;29;20456;-51
2022/01/12 06:16:18;;;;;;;12.33;7.80;;;2.50;84.60;;;;;;4912930;29;20475;-51
2022/01/12 06:18:45;;;;;;;13.00;7.70;;;2.40;84.70;;;;;;4924482;29;20550;-51
2022/01/12 06:21:12;;;;;;;10.47;6.83;;;2.40;85.00;;;;;;4927047;29;20471;-52
2022/01/12 06:23:39;;;;;;;11.23;7.50;;;2.40;85.00;;;;;;4915895;29;20495;-52
2022/01/12 06:26:06;;;;;;;8.00;6.20;;;2.40;85.00;;;;;;4910818;29;20460;-52
2022/01/12 06:31:17;;;;;;;10.23;6.70;;;2.40;84.60;;;;;;4927550;29;20488;-51
2022/01/12 06:33:47;;;;;;;8.70;6.10;;;2.40;84.60;;;;;;4923999;29;20472;-51
2022/01/12 06:36:16;;;;;;;9.30;5.97;;;2.40;84.50;;;;;;4924257;29;20464;-51
2022/01/12 06:38:44;;;;;;;9.90;7.43;;;2.40;84.50;;;;;;4927995;29;20463;-51
2022/01/12 06:41:12;;;;;;;7.97;6.37;;;2.30;84.50;;;;;;4896533;29;20478;-51
2022/01/12 06:43:40;;;;;;;8.67;7.77;;;2.30;84.80;;;;;;4926492;29;20481;-51
2022/01/12 06:46:07;;;;;;;8.03;6.27;;;2.30;84.90;;;;;;4912707;29;20459;-50
2022/01/12 06:48:34;;;;;;;10.83;7.20;;;2.20;85.10;;;;;;4925681;29;20478;-51
2022/01/12 06:51:03;;;;;;;9.17;7.23;;;2.20;85.00;;;;;;4926437;29;21009;-50
2022/01/12 06:53:32;;;;;;;10.70;6.80;;;2.20;85.00;;;;;;4920675;29;20568;-47
2022/01/12 06:55:59;;;;;;;13.40;6.97;;;2.20;85.00;;;;;;4915426;29;20490;-47
2022/01/12 06:58:26;;;;;;;12.20;7.80;;;2.10;85.10;;;;;;4924936;29;20507;-48
2022/01/12 07:00:53;;;;;;;9.47;8.23;;;2.10;85.40;;;;;;4928946;29;20467;-47
2022/01/12 07:03:20;;;;;;;8.83;6.47;;;2.10;85.50;;;;;;4925833;29;20969;-47
2022/01/12 07:05:47;;;;;;;12.80;7.67;;;2.10;85.10;;;;;;4923486;29;20552;-48
2022/01/12 07:08:15;;;;;;;8.07;7.17;;;2.10;85.10;;;;;;4925951;29;20474;-47
2022/01/12 07:10:42;;;;;;;9.80;6.93;;;2.10;85.20;;;;;;4923511;29;20522;-48
2022/01/12 07:13:13;;;;;;;9.20;6.83;;;2.10;85.10;;;;;;4919310;29;20526;-47
2022/01/12 07:15:41;;;;;;;10.27;7.60;;;2.10;85.10;;;;;;4936553;29;20538;-48
2022/01/12 07:18:09;;;;;;;10.33;6.57;;;2.00;85.40;;;;;;4908453;29;20464;-48
2022/01/12 07:20:36;;;;;;;9.27;7.40;;;2.00;85.70;;;;;;4921403;29;20514;-48
2022/01/12 07:23:03;;;;;;;10.37;6.90;;;2.00;85.60;;;;;;4911254;29;20513;-48
2022/01/12 07:25:30;;;;;;;11.87;7.00;;;2.10;85.30;;;;;;4926464;29;20479;-48
2022/01/12 07:27:58;;;;;;;9.80;6.97;;;2.10;85.60;;;;;;4899209;29;20966;-48
2022/01/12 07:30:24;;;;;;;11.33;7.50;;;2.10;85.20;;;;;;4912912;29;20523;-48
2022/01/12 07:32:51;;;;;;;11.37;7.17;;;2.00;85.40;;;;;;4919096;29;20514;-48
2022/01/12 07:35:19;;;;;;;7.07;6.37;;;2.00;85.60;;;;;;4923768;29;20456;-48
2022/01/12 07:37:47;;;;;;;9.40;7.10;;;2.00;85.60;;;;;;4924670;29;20464;-48
2022/01/12 07:40:14;;;;;;;10.10;7.10;;;2.10;85.40;;;;;;4926906;29;21079;-47
2022/01/12 07:42:42;;;;;;;10.23;7.97;;;2.00;85.40;;;;;;4923080;29;20970;-47
2022/01/12 07:45:09;;;;;;;11.83;7.90;;;2.00;85.70;;;;;;4925778;29;20941;-47
2022/01/12 07:47:36;;;;;;;8.47;7.40;;;2.00;85.80;;;;;;4925987;29;20551;-47
2022/01/12 07:50:05;;;;;;;9.83;8.70;;;2.00;85.90;;;;;;4911638;29;20472;-46
2022/01/12 07:52:32;;;;;;;10.27;8.27;;;2.00;85.80;;;;;;4926159;29;20467;-48
2022/01/12 07:55:00;;;;;;;10.57;8.90;;;2.00;85.90;;;;;;4923381;29;20545;-48
2022/01/12 07:57:27;;;;;;;11.40;7.23;;;2.00;86.00;;;;;;4923899;29;20464;-47
2022/01/12 07:59:55;;;;;;;11.00;9.47;;;2.00;86.00;;;;;;4926368;29;20488;-47
2022/01/12 08:02:22;;;;;;;11.13;8.20;;;2.00;86.10;;;;;;4924307;29;20461;-47
2022/01/12 08:04:52;;;;;;;8.97;7.53;;;2.10;86.20;;;;;;4918958;29;20966;-47
2022/01/12 08:07:19;;;;;;;10.63;8.23;;;2.10;85.90;;;;;;4924369;29;20460;-47
2022/01/12 08:09:45;;;;;;;15.07;9.00;;;2.10;85.80;;;;;;4926044;29;21024;-48
2022/01/12 08:12:14;;;;;;;19.97;12.43;;;2.10;85.70;;;;;;4918124;29;20511;-47
2022/01/12 08:14:40;;;;;;;17.63;12.20;;;2.10;85.90;;;;;;4924189;29;20467;-47
2022/01/12 08:17:07;;;;;;;15.73;13.20;;;2.10;86.00;;;;;;4921713;29;21032;-48
2022/01/12 08:19:36;;;;;;;19.40;13.10;;;2.20;85.80;;;;;;4907977;29;20970;-47
2022/01/12 08:22:04;;;;;;;17.00;13.00;;;2.20;85.70;;;;;;4907768;29;20843;-47
2022/01/12 08:24:31;;;;;;;16.57;11.63;;;2.20;85.70;;;;;;4922623;29;20495;-47
2022/01/12 08:27:07;;;;;;;19.93;11.80;;;2.20;85.70;;;;;;4922100;29;20463;-47
2022/01/12 08:29:34;;;;;;;20.27;12.17;;;2.10;85.80;;;;;;4919884;29;20554;-47
2022/01/12 08:32:01;;;;;;;16.60;10.73;;;2.20;85.90;;;;;;4920125;29;20492;-47
2022/01/12 08:34:28;;;;;;;12.50;9.90;;;2.20;85.70;;;;;;4921560;29;20468;-47
2022/01/12 08:37:00;;;;;;;14.17;9.63;;;2.20;85.70;;;;;;4922959;29;20453;-47
2022/01/12 08:39:27;;;;;;;11.03;8.87;;;2.20;85.60;;;;;;4921257;29;20456;-47
2022/01/12 08:41:53;;;;;;;14.83;10.10;;;2.20;85.70;;;;;;4920413;29;20477;-47
2022/01/12 08:44:35;;;;;;;14.73;9.60;;;2.20;85.50;;;;;;4913213;29;20464;-47
2022/01/12 08:47:02;;;;;;;15.80;10.67;;;2.20;85.70;;;;;;4924964;29;20476;-48
2022/01/12 08:49:29;;;;;;;12.00;9.30;;;2.20;85.90;;;;;;4924238;29;20471;-47
2022/01/12 08:51:56;;;;;;;14.50;10.30;;;2.20;85.90;;;;;;4921951;29;20498;-47
2022/01/12 08:54:23;;;;;;;14.00;9.57;;;2.30;86.00;;;;;;4921888;29;20444;-48
2022/01/12 08:56:50;;;;;;;12.00;9.17;;;2.40;86.00;;;;;;4922411;29;20441;-47
2022/01/12 08:59:17;;;;;;;14.33;9.47;;;2.40;86.30;;;;;;4919611;29;20457;-47
2022/01/12 09:01:44;;;;;;;11.53;8.50;;;2.50;86.40;;;;;;4920972;29;20555;-48
2022/01/12 09:04:11;;;;;;;14.27;9.23;;;2.50;86.50;;;;;;4938496;28;21053;-47
2022/01/12 09:06:38;;;;;;;11.23;8.80;;;2.60;86.40;;;;;;4922648;29;20472;-47
2022/01/12 09:09:05;;;;;;;14.57;9.93;;;2.60;86.40;;;;;;4921732;29;20476;-46
2022/01/12 09:11:32;;;;;;;12.10;9.90;;;2.70;85.30;;;;;;4923372;29;20494;-47
2022/01/12 09:13:59;;;;;;;16.50;10.03;;;2.80;84.00;;;;;;4922893;29;20860;-48
2022/01/12 09:16:26;;;;;;;13.10;9.40;;;2.80;84.30;;;;;;4920890;29;20472;-47
2022/01/12 09:18:53;;;;;;;10.73;7.90;;;2.80;84.50;;;;;;4922114;29;20902;-46
2022/01/12 09:21:19;;;;;;;11.40;8.53;;;2.90;84.40;;;;;;4921252;29;20467;-47
2022/01/12 09:23:49;;;;;;;12.97;8.30;;;2.80;84.30;;;;;;4924290;29;20504;-47
2022/01/12 09:26:15;;;;;;;9.10;7.90;;;2.90;84.80;;;;;;4923059;29;20551;-47
2022/01/12 09:28:42;;;;;;;10.30;8.30;;;2.90;84.50;;;;;;4920366;29;20554;-47
2022/01/12 09:31:09;;;;;;;14.80;8.77;;;2.90;84.50;;;;;;4922953;29;21181;-47
2022/01/12 09:33:36;;;;;;;10.40;7.90;;;3.00;84.60;;;;;;4920991;29;20965;-47
2022/01/12 09:36:03;;;;;;;14.00;9.20;;;3.00;84.40;;;;;;4919311;29;20531;-47
2022/01/12 09:38:30;;;;;;;11.47;8.40;;;3.10;84.40;;;;;;4919246;29;20471;-47
2022/01/12 09:40:57;;;;;;;11.73;8.83;;;3.10;84.60;;;;;;4918541;29;20482;-48
2022/01/12 09:43:33;;;;;;;10.53;9.30;;;3.20;84.60;;;;;;4923204;29;21036;-47
2022/01/12 09:46:01;;;;;;;13.23;9.43;;;3.40;83.50;;;;;;4920072;29;21028;-47
2022/01/12 09:48:33;;;;;;;11.00;9.20;;;3.40;83.60;;;;;;4922679;29;20555;-48
2022/01/12 09:51:04;;;;;;;11.70;8.37;;;3.50;84.20;;;;;;4928346;29;20491;-48
2022/01/12 09:53:33;;;;;;;11.17;8.87;;;3.70;83.00;;;;;;4926092;29;20567;-48
2022/01/12 09:56:03;;;;;;;10.57;8.50;;;3.80;83.10;;;;;;4941450;29;20464;-47
2022/01/12 09:58:33;;;;;;;12.17;8.63;;;3.80;83.40;;;;;;4923390;29;20467;-48
2022/01/12 10:01:02;;;;;;;10.70;8.70;;;3.90;83.20;;;;;;4927650;29;20474;-47
2022/01/12 10:03:31;;;;;;;14.03;8.27;;;4.00;82.40;;;;;;4928388;29;20518;-47
2022/01/12 10:05:58;;;;;;;12.53;8.57;;;4.10;82.20;;;;;;4923605;29;20477;-51
2022/01/12 10:08:25;;;;;;;11.20;8.60;;;4.10;81.40;;;;;;4922585;29;20938;-50
2022/01/12 10:11:05;;;;;;;12.20;8.63;;;4.20;81.40;;;;;;4925997;29;20475;-50
2022/01/12 10:13:32;;;;;;;12.20;7.90;;;4.20;80.50;;;;;;4926720;29;20472;-50
2022/01/12 10:16:14;;;;;;;13.93;8.80;;;4.30;80.70;;;;;;4923741;29;20449;-50
2022/01/12 10:19:08;;;;;;;10.27;7.17;;;4.40;80.20;;;;;;4913997;29;20838;-51
2022/01/12 10:21:37;;;;;;;13.40;9.33;;;4.40;79.80;;;;;;4925886;29;20444;-50
2022/01/12 10:24:11;;;;;;;12.10;8.53;;;4.50;79.50;;;;;;4922853;29;20236;-51
2022/01/12 10:26:44;;;;;;;12.90;9.60;;;4.50;79.30;;;;;;4923610;29;20471;-51
2022/01/12 10:29:15;;;;;;;11.93;9.23;;;4.50;79.60;;;;;;4924137;29;20471;-50
2022/01/12 10:31:58;;;;;;;14.80;9.80;;;4.60;79.40;;;;;;4914129;29;20597;-50
2022/01/12 10:34:40;;;;;;;15.80;10.20;;;4.60;79.10;;;;;;4928321;29;20546;-50
2022/01/12 10:37:10;;;;;;;11.67;9.07;;;4.60;79.30;;;;;;4925896;29;20479;-51
2022/01/12 10:39:45;;;;;;;13.50;9.87;;;4.60;78.90;;;;;;4924856;29;20476;-50
2022/01/12 10:42:14;;;;;;;14.80;9.77;;;4.60;78.60;;;;;;4920470;29;20466;-50
2022/01/12 10:44:44;;;;;;;11.93;8.63;;;4.70;78.10;;;;;;4926838;29;20471;-50
2022/01/12 10:47:16;;;;;;;12.13;8.17;;;4.70;77.10;;;;;;4926933;29;20768;-50
2022/01/12 10:49:53;;;;;;;14.30;8.33;;;4.70;76.60;;;;;;4920785;29;20459;-51
2022/01/12 10:52:22;;;;;;;10.50;8.40;;;4.70;76.80;;;;;;4922575;29;20499;-51
2022/01/12 10:54:54;;;;;;;11.43;9.17;;;4.80;76.20;;;;;;4906115;29;20470;-50
2022/01/12 10:57:25;;;;;;;12.23;7.93;;;4.80;76.50;;;;;;4923877;29;20517;-51
2022/01/12 11:00:19;;;;;;;12.93;7.50;;;4.80;75.90;;;;;;4926771;29;20934;-50
2022/01/12 11:02:59;;;;;;;12.73;8.50;;;4.90;76.20;;;;;;4936674;28;20474;-51
2022/01/12 11:05:29;;;;;;;9.10;6.73;;;4.90;76.40;;;;;;4924793;29;20575;-52
2022/01/12 11:07:56;;;;;;;8.97;6.73;;;4.90;75.00;;;;;;4921094;29;20569;-51
2022/01/12 11:10:23;;;;;;;12.07;8.10;;;5.00;75.40;;;;;;4924113;29;21008;-51
2022/01/12 11:12:52;;;;;;;10.43;7.87;;;4.90;75.90;;;;;;4929604;29;20888;-51
2022/01/12 11:15:21;;;;;;;12.00;7.23;;;5.00;75.50;;;;;;4923745;29;20982;-50
2022/01/12 11:17:50;;;;;;;9.80;7.30;;;5.00;74.50;;;;;;4936592;28;20461;-51
2022/01/12 11:20:25;;;;;;;10.83;7.50;;;5.10;74.60;;;;;;4924454;29;20543;-51
2022/01/12 11:23:04;;;;;;;11.10;8.50;;;5.10;74.30;;;;;;4912339;29;20503;-50
2022/01/12 11:25:43;;;;;;;10.10;8.17;;;5.20;75.00;;;;;;4925125;29;20769;-49
2022/01/12 11:28:21;;;;;;;13.47;8.70;;;5.20;75.40;;;;;;4913656;29;20470;-50
2022/01/12 11:30:51;;;;;;;10.70;7.73;;;5.20;75.70;;;;;;4929591;29;20459;-51
2022/01/12 11:33:20;;;;;;;10.13;7.63;;;5.40;73.60;;;;;;4924830;29;20994;-51
2022/01/12 11:35:50;;;;;;;10.33;8.03;;;5.40;73.70;;;;;;4928375;29;21108;-51
2022/01/12 11:38:25;;;;;;;10.63;9.50;;;5.40;74.40;;;;;;4924084;29;20497;-51
2022/01/12 11:41:12;;;;;;;12.33;9.53;;;5.40;74.00;;;;;;4926123;29;20464;-50
2022/01/12 11:43:54;;;;;;;11.53;8.50;;;5.40;75.00;;;;;;4906484;29;20522;-50
2022/01/12 11:46:46;;;;;;;11.77;8.23;;;5.50;74.20;;;;;;4923073;29;21212;-50
2022/01/12 11:49:27;;;;;;;18.97;13.27;;;5.50;73.20;;;;;;4926241;29;20952;-51
2022/01/12 11:51:56;;;;;;;18.30;12.10;;;5.50;72.60;;;;;;4927538;29;20495;-51
2022/01/12 11:54:32;;;;;;;12.70;9.90;;;5.50;72.70;;;;;;4923921;29;20946;-49
2022/01/12 11:57:06;;;;;;;9.80;8.03;;;5.40;73.30;;;;;;4911492;29;20562;-49
2022/01/12 11:59:54;;;;;;;7.80;6.60;;;5.40;73.80;;;;;;4927452;29;20458;-50
2022/01/12 12:02:36;;;;;;;8.07;6.07;;;5.40;73.40;;;;;;4926446;29;20469;-49
2022/01/12 12:05:10;;;;;;;9.70;6.10;;;5.40;73.50;;;;;;4927592;29;20471;-50
2022/01/12 12:08:06;;;;;;;11.60;8.37;;;5.40;73.90;;;;;;4928357;29;20474;-50
2022/01/12 12:10:39;;;;;;;11.50;7.70;;;5.40;73.50;;;;;;4909265;29;20491;-50
2022/01/12 12:13:07;;;;;;;9.43;7.17;;;5.50;73.80;;;;;;4921786;29;20500;-50
2022/01/12 12:15:34;;;;;;;10.50;8.30;;;5.50;74.00;;;;;;4925078;29;20858;-50
2022/01/12 12:18:04;;;;;;;12.90;9.20;;;5.50;74.20;;;;;;4926527;29;20527;-49
2022/01/12 12:20:33;;;;;;;10.63;9.17;;;5.50;73.80;;;;;;4926940;29;20949;-50
2022/01/12 12:23:00;;;;;;;10.00;8.90;;;5.50;74.50;;;;;;4911914;29;20490;-50
2022/01/12 12:25:29;;;;;;;11.83;8.13;;;5.60;74.80;;;;;;4922334;29;20468;-51
2022/01/12 12:28:02;;;;;;;9.37;7.63;;;5.60;74.60;;;;;;4922199;29;20467;-49
2022/01/12 12:30:32;;;;;;;14.47;9.20;;;5.70;74.10;;;;;;4920305;29;20482;-50
2022/01/12 12:33:12;;;;;;;8.73;7.10;;;5.70;73.90;;;;;;4913519;29;20520;-51
2022/01/12 12:35:41;;;;;;;8.50;7.20;;;5.70;73.70;;;;;;4924770;29;20484;-49
2022/01/12 12:38:10;;;;;;;13.43;8.33;;;5.70;73.90;;;;;;4906865;29;20484;-50
2022/01/12 12:40:40;;;;;;;11.43;8.47;;;5.70;74.30;;;;;;4910860;29;20464;-49
2022/01/12 12:43:20;;;;;;;9.40;8.00;;;5.70;74.30;;;;;;4922353;29;20464;-50
2022/01/12 12:45:48;;;;;;;10.20;8.27;;;5.70;74.70;;;;;;4935897;29;20474;-50
2022/01/12 12:48:28;;;;;;;11.77;7.50;;;5.80;73.60;;;;;;4923694;29;20555;-50
2022/01/12 12:51:09;;;;;;;11.80;8.50;;;5.70;73.60;;;;;;4924900;29;20460;-49
2022/01/12 12:53:39;;;;;;;9.77;6.97;;;5.80;73.90;;;;;;4920554;29;20842;-50
2022/01/12 12:56:12;;;;;;;10.80;7.77;;;5.80;73.60;;;;;;4926973;29;20466;-50
2022/01/12 12:58:39;;;;;;;8.23;7.07;;;5.90;73.30;;;;;;4907313;29;20460;-50
2022/01/12 13:01:12;;;;;;;11.30;7.23;;;5.90;73.20;;;;;;4910742;29;20464;-51
2022/01/12 13:03:46;;;;;;;10.37;6.70;;;6.00;73.30;;;;;;4922499;29;20903;-49
2022/01/12 13:06:29;;;;;;;10.53;8.37;;;6.00;72.90;;;;;;4920324;29;20479;-50
2022/01/12 13:08:58;;;;;;;8.73;6.23;;;6.20;71.20;;;;;;4919612;29;20839;-50
2022/01/12 13:11:30;;;;;;;10.50;7.07;;;6.30;70.80;;;;;;4921432;29;20914;-51
2022/01/12 13:14:00;;;;;;;6.90;6.20;;;6.30;71.30;;;;;;4921215;29;20548;-49
2022/01/12 13:16:27;;;;;;;6.47;5.67;;;6.30;71.60;;;;;;4920393;29;20463;-49
2022/01/12 13:19:20;;;;;;;10.13;6.80;;;6.30;71.60;;;;;;4925580;29;20452;-50
2022/01/12 13:21:51;;;;;;;6.53;5.83;;;6.30;71.40;;;;;;4922627;29;20465;-50
2022/01/12 13:24:17;;;;;;;6.80;5.60;;;6.40;71.20;;;;;;4910699;29;20895;-50
2022/01/12 13:26:44;;;;;;;9.27;6.33;;;6.50;70.70;;;;;;4918765;29;20475;-50
2022/01/12 13:29:13;;;;;;;8.00;6.60;;;6.50;69.70;;;;;;4905345;29;20476;-50
2022/01/12 13:31:43;;;;;;;8.83;6.80;;;6.50;70.10;;;;;;4903976;29;21053;-52
2022/01/12 13:34:13;;;;;;;10.43;6.30;;;6.50;70.30;;;;;;4908585;29;20470;-52
2022/01/12 13:36:49;;;;;;;7.40;6.10;;;6.60;69.60;;;;;;4921246;29;20468;-52
2022/01/12 13:39:16;;;;;;;7.37;5.40;;;6.60;69.90;;;;;;4909874;29;20459;-52
2022/01/12 13:41:46;;;;;;;6.97;5.93;;;6.60;70.00;;;;;;4924675;29;20463;-52
2022/01/12 13:44:19;;;;;;;7.33;5.90;;;6.60;69.90;;;;;;4918053;29;20563;-52
2022/01/12 13:47:23;;;;;;;7.30;5.80;;;6.60;68.30;;;;;;4923533;29;20874;-52
2022/01/12 13:49:48;;;;;;;8.40;5.73;;;6.60;68.80;;;;;;4925499;29;20457;-52
2022/01/12 13:52:16;;;;;;;8.50;6.23;;;6.60;68.90;;;;;;4921964;29;20487;-52
2022/01/12 13:54:45;;;;;;;7.30;5.70;;;6.50;69.50;;;;;;4921104;29;20468;-52
2022/01/12 13:57:17;;;;;;;6.27;5.67;;;6.50;70.30;;;;;;4935304;29;20818;-52
2022/01/12 13:59:46;;;;;;;6.60;5.97;;;6.60;70.00;;;;;;4909605;29;20464;-52
2022/01/12 14:02:17;;;;;;;6.70;5.97;;;6.50;70.00;;;;;;4907034;29;20461;-52
2022/01/12 14:04:59;;;;;;;8.73;5.83;;;6.60;69.60;;;;;;4921991;29;20563;-51
2022/01/12 14:07:29;;;;;;;8.90;6.00;;;6.50;69.80;;;;;;4918926;29;20475;-51
2022/01/12 14:09:58;;;;;;;7.10;6.20;;;6.50;69.70;;;;;;4924099;29;20469;-52
2022/01/12 14:12:27;;;;;;;7.80;6.13;;;6.60;69.80;;;;;;4906979;29;20492;-52
2022/01/12 14:14:58;;;;;;;7.60;6.30;;;6.60;70.10;;;;;;4920053;29;20981;-52
2022/01/12 14:17:31;;;;;;;8.37;6.87;;;6.60;70.10;;;;;;4933776;28;20593;-52
2022/01/12 14:20:00;;;;;;;7.47;6.30;;;6.60;69.90;;;;;;4921699;29;20822;-51
2022/01/12 14:22:46;;;;;;;7.43;5.97;;;6.50;70.20;;;;;;4919785;29;20528;-51
2022/01/12 14:25:15;;;;;;;10.87;7.57;;;6.50;70.50;;;;;;4922504;29;20468;-51
2022/01/12 14:27:44;;;;;;;7.30;6.37;;;6.60;70.40;;;;;;4917224;29;20468;-51
2022/01/12 14:30:14;;;;;;;9.37;7.90;;;6.70;69.50;;;;;;4920927;29;20467;-51